Time;durP1;ratioP1;P1;durP2;ratioP2;P2;SDS_P1;SDS_P2;PMS_P1;PMS_P2;Temp;Humidity;BMP_temperature;BMP_pressure;BME280_temperature;BME280_humidity;BME280_pressure;Samples;Min_cycle;Max_cycle;Signal;HPM_P1;HPM_P2
2022/08/18 00:01:47;;;;;;;8.13;3.65;;;22.80;99.90;;;;;;5059955;28;20388;-74
2022/08/18 00:04:13;;;;;;;7.97;3.58;;;22.80;99.90;;;;;;5069589;28;20036;-74
2022/08/18 00:06:40;;;;;;;8.50;3.83;;;22.80;99.90;;;;;;5070693;28;20040;-73
2022/08/18 00:09:08;;;;;;;9.18;3.58;;;22.90;99.90;;;;;;5045965;28;20047;-73
2022/08/18 00:11:37;;;;;;;8.15;3.50;;;22.70;99.90;;;;;;5071305;28;20028;-73
2022/08/18 00:14:03;;;;;;;9.65;3.65;;;22.80;99.90;;;;;;5069662;28;20025;-73
2022/08/18 00:16:28;;;;;;;8.98;3.83;;;22.80;99.90;;;;;;5066700;28;20031;-73
2022/08/18 00:18:54;;;;;;;8.30;3.58;;;22.70;99.90;;;;;;5067496;28;20059;-73
2022/08/18 00:21:20;;;;;;;9.00;3.22;;;22.70;99.90;;;;;;5066845;28;20493;-74
2022/08/18 00:23:45;;;;;;;7.70;3.67;;;22.40;99.90;;;;;;5060585;28;20064;-74
2022/08/18 00:26:11;;;;;;;8.27;4.40;;;22.50;99.90;;;;;;5051985;28;20792;-73
2022/08/18 00:28:37;;;;;;;7.78;4.32;;;22.50;99.90;;;;;;5041176;28;20098;-74
2022/08/18 00:31:04;;;;;;;13.45;4.10;;;22.50;99.90;;;;;;5071508;28;20032;-74
2022/08/18 00:33:30;;;;;;;9.63;3.90;;;22.50;99.90;;;;;;5069475;28;20577;-74
2022/08/18 00:35:56;;;;;;;5.43;3.45;;;22.60;99.90;;;;;;5071523;28;20116;-74
2022/08/18 00:38:21;;;;;;;8.15;3.15;;;22.50;99.90;;;;;;5065596;28;20127;-73
2022/08/18 00:40:53;;;;;;;11.20;4.47;;;22.40;99.90;;;;;;5066311;28;20036;-74
2022/08/18 00:43:33;;;;;;;7.32;3.53;;;22.40;99.90;;;;;;5070823;28;20064;-73
2022/08/18 00:46:00;;;;;;;9.35;3.67;;;22.40;99.90;;;;;;5068778;28;20029;-73
2022/08/18 00:48:26;;;;;;;9.93;3.75;;;22.40;99.90;;;;;;5063985;28;20033;-74
2022/08/18 00:50:58;;;;;;;6.75;3.38;;;22.40;99.90;;;;;;5065803;28;20078;-73
2022/08/18 00:53:35;;;;;;;7.05;3.22;;;22.30;99.90;;;;;;5065106;28;20024;-74
2022/08/18 00:56:09;;;;;;;9.10;3.08;;;22.40;99.90;;;;;;5068758;28;20032;-73
2022/08/18 00:58:43;;;;;;;7.45;3.03;;;22.30;99.90;;;;;;5057865;28;20555;-73
2022/08/18 01:01:10;;;;;;;;;;;22.20;99.90;;;;;;5062395;28;20033;-73
2022/08/18 01:03:38;;;;;;;9.55;3.25;;;22.10;99.90;;;;;;5059403;28;20397;-74
2022/08/18 01:06:31;;;;;;;8.75;3.28;;;22.10;99.90;;;;;;5056271;28;20069;-73
2022/08/18 01:08:58;;;;;;;6.03;3.17;;;22.00;99.90;;;;;;5060578;28;20029;-73
2022/08/18 01:11:25;;;;;;;12.30;3.72;;;22.00;99.90;;;;;;5055699;28;20117;-73
2022/08/18 01:13:52;;;;;;;13.75;4.00;;;21.90;99.90;;;;;;5066027;28;20450;-73
2022/08/18 01:21:54;;;;;;;8.10;3.03;;;21.70;99.90;;;;;;5068422;28;20044;-74
2022/08/18 01:27:18;;;;;;;9.00;3.35;;;21.80;99.90;;;;;;5067805;28;20065;-73
2022/08/18 01:29:46;;;;;;;5.90;3.20;;;21.70;99.90;;;;;;5070105;28;20032;-73
2022/08/18 01:32:18;;;;;;;6.35;3.15;;;21.70;99.90;;;;;;5061060;28;20104;-73
2022/08/18 01:34:46;;;;;;;6.82;3.65;;;21.60;99.90;;;;;;5060601;28;20020;-73
2022/08/18 01:37:17;;;;;;;7.30;3.50;;;21.60;99.90;;;;;;5055898;28;20028;-73
2022/08/18 01:39:44;;;;;;;7.07;3.40;;;21.60;99.90;;;;;;5070016;28;20119;-73
2022/08/18 01:42:12;;;;;;;10.82;3.25;;;21.60;99.90;;;;;;5054720;28;20514;-73
2022/08/18 01:44:40;;;;;;;6.53;3.20;;;21.60;99.90;;;;;;5061675;28;20025;-73
2022/08/18 01:47:07;;;;;;;7.38;4.03;;;21.70;99.90;;;;;;5059435;28;20072;-73
2022/08/18 01:49:32;;;;;;;6.85;3.42;;;21.50;99.90;;;;;;5046922;28;20433;-73
2022/08/18 01:51:58;;;;;;;6.47;4.00;;;21.50;99.90;;;;;;5055038;28;20085;-73
2022/08/18 01:54:28;;;;;;;10.43;3.63;;;21.50;99.90;;;;;;5060367;28;20070;-73
2022/08/18 01:56:54;;;;;;;8.88;4.68;;;21.50;99.90;;;;;;5071020;28;20891;-73
2022/08/18 01:59:20;;;;;;;6.80;3.47;;;21.50;99.90;;;;;;5059753;28;20032;-74
2022/08/18 02:01:47;;;;;;;6.45;3.20;;;21.50;99.90;;;;;;5070109;28;20032;-74
2022/08/18 02:04:15;;;;;;;7.63;3.22;;;21.60;99.90;;;;;;5066856;28;20100;-73
2022/08/18 02:06:41;;;;;;;7.70;3.40;;;21.60;99.90;;;;;;5059000;28;20040;-73
2022/08/18 02:09:07;;;;;;;6.38;3.45;;;21.60;99.90;;;;;;5065353;28;20434;-73
2022/08/18 02:11:33;;;;;;;5.40;2.75;;;21.60;99.90;;;;;;5055631;28;20071;-73
2022/08/18 02:13:58;;;;;;;10.73;3.45;;;21.50;99.90;;;;;;5070465;28;20425;-73
2022/08/18 02:16:24;;;;;;;7.45;3.60;;;21.50;99.90;;;;;;5064157;28;20029;-73
2022/08/18 02:18:50;;;;;;;10.10;3.70;;;21.40;99.90;;;;;;5061205;28;20021;-73
2022/08/18 02:21:18;;;;;;;7.30;4.05;;;21.40;99.90;;;;;;5063204;28;20103;-73
2022/08/18 02:23:44;;;;;;;7.80;3.75;;;21.40;99.90;;;;;;5069885;28;20090;-73
2022/08/18 02:26:14;;;;;;;8.77;4.50;;;21.40;99.90;;;;;;5065687;28;20025;-73
2022/08/18 02:28:40;;;;;;;8.23;3.45;;;21.40;99.90;;;;;;5071119;28;20036;-73
2022/08/18 02:31:11;;;;;;;7.75;3.95;;;21.40;99.90;;;;;;5060371;28;20536;-73
2022/08/18 02:33:37;;;;;;;6.32;3.60;;;21.30;99.90;;;;;;5058229;28;20037;-73
2022/08/18 02:36:05;;;;;;;7.80;3.22;;;21.40;99.90;;;;;;5058984;28;20535;-73
2022/08/18 02:38:31;;;;;;;8.68;3.10;;;21.50;99.90;;;;;;5066924;28;20048;-73
2022/08/18 02:40:59;;;;;;;9.13;3.63;;;21.50;99.90;;;;;;5064521;28;20513;-73
2022/08/18 02:43:25;;;;;;;5.45;3.33;;;21.40;99.90;;;;;;5074123;28;20119;-73
2022/08/18 02:45:51;;;;;;;7.95;3.30;;;21.50;99.90;;;;;;5070195;28;20078;-73
2022/08/18 02:48:23;;;;;;;6.20;3.47;;;21.60;99.90;;;;;;5070297;28;20076;-73
2022/08/18 02:50:49;;;;;;;8.05;2.90;;;21.60;99.90;;;;;;5067715;28;20558;-73
2022/08/18 02:53:24;;;;;;;7.80;4.25;;;21.60;99.90;;;;;;5054100;28;20108;-73
2022/08/18 02:55:49;;;;;;;8.27;3.33;;;21.60;99.90;;;;;;5069307;28;20502;-73
2022/08/18 02:58:15;;;;;;;4.75;2.65;;;21.60;99.90;;;;;;5073648;28;20025;-73
2022/08/18 03:00:41;;;;;;;7.18;3.13;;;21.60;99.90;;;;;;5068786;28;20486;-71
2022/08/18 03:03:07;;;;;;;7.78;3.08;;;21.60;99.90;;;;;;5051790;28;20033;-72
2022/08/18 03:05:33;;;;;;;5.00;2.67;;;21.60;99.90;;;;;;5064107;28;20029;-72
2022/08/18 03:07:59;;;;;;;8.38;3.60;;;21.50;99.90;;;;;;5067311;28;20469;-72
2022/08/18 03:10:25;;;;;;;6.78;3.30;;;21.50;99.90;;;;;;5055956;28;20045;-72
2022/08/18 03:12:52;;;;;;;8.98;3.40;;;21.60;99.90;;;;;;5068135;28;20055;-72
2022/08/18 03:15:17;;;;;;;7.80;3.75;;;21.60;99.90;;;;;;5062347;28;20487;-73
2022/08/18 03:17:43;;;;;;;8.98;3.80;;;21.70;99.90;;;;;;5056817;28;20064;-72
2022/08/18 03:20:09;;;;;;;9.45;3.30;;;21.80;99.90;;;;;;5052210;28;20114;-72
2022/08/18 03:22:37;;;;;;;8.13;3.97;;;21.80;99.90;;;;;;5060904;28;20066;-72
2022/08/18 03:25:03;;;;;;;9.23;3.42;;;21.80;99.90;;;;;;5061794;28;20039;-72
2022/08/18 03:27:29;;;;;;;12.75;3.88;;;21.70;99.90;;;;;;5059774;28;20033;-71
2022/08/18 03:29:55;;;;;;;9.77;3.53;;;21.60;99.90;;;;;;5050173;28;20444;-71
2022/08/18 03:32:21;;;;;;;7.30;3.33;;;21.70;99.90;;;;;;5054038;28;20390;-71
2022/08/18 03:34:47;;;;;;;6.40;3.72;;;21.80;99.90;;;;;;5052606;28;20037;-72
2022/08/18 03:37:14;;;;;;;8.60;3.45;;;21.90;99.90;;;;;;5055938;28;20374;-72
2022/08/18 03:39:40;;;;;;;16.80;5.72;;;21.80;99.90;;;;;;5052652;28;20140;-72
2022/08/18 03:42:07;;;;;;;24.38;6.80;;;21.60;99.90;;;;;;5056276;28;20120;-73
2022/08/18 03:44:37;;;;;;;11.30;5.57;;;21.00;99.90;;;;;;5056598;28;20109;-74
2022/08/18 03:47:07;;;;;;;10.90;5.97;;;20.30;99.90;;;;;;5066917;28;20462;-73
2022/08/18 03:49:33;;;;;;;8.30;4.47;;;20.30;99.90;;;;;;5057572;28;20041;-73
2022/08/18 03:51:59;;;;;;;9.50;4.13;;;20.30;99.90;;;;;;5048117;28;20029;-73
2022/08/18 03:54:25;;;;;;;13.90;5.10;;;20.50;99.90;;;;;;5059421;28;20079;-72
2022/08/18 03:56:53;;;;;;;12.40;5.38;;;20.60;99.90;;;;;;5057209;28;20111;-72
2022/08/18 03:59:21;;;;;;;13.27;5.63;;;20.30;99.90;;;;;;5051483;28;20036;-72
2022/08/18 04:01:49;;;;;;;14.15;6.80;;;20.10;99.90;;;;;;5062172;28;20040;-72
2022/08/18 04:04:19;;;;;;;13.02;5.63;;;20.00;99.90;;;;;;5063433;28;20032;-73
2022/08/18 04:07:03;;;;;;;9.13;4.30;;;20.20;99.90;;;;;;5051609;28;20686;-73
2022/08/18 04:09:31;;;;;;;10.05;5.03;;;20.10;99.90;;;;;;5052934;28;20071;-73
2022/08/18 04:11:58;;;;;;;12.68;4.85;;;20.00;99.90;;;;;;5050330;28;20136;-73
2022/08/18 04:14:34;;;;;;;14.88;4.82;;;19.90;99.90;;;;;;5045922;28;20036;-73
2022/08/18 04:17:00;;;;;;;11.30;4.65;;;19.90;99.90;;;;;;5043283;28;20037;-73
2022/08/18 04:19:25;;;;;;;10.95;3.92;;;20.10;99.90;;;;;;5049944;28;20039;-73
2022/08/18 04:21:52;;;;;;;8.50;4.45;;;20.00;99.90;;;;;;5060157;28;20374;-73
2022/08/18 04:24:18;;;;;;;7.82;3.97;;;20.00;99.90;;;;;;5064998;28;20029;-73
2022/08/18 04:26:46;;;;;;;7.20;4.00;;;20.00;99.90;;;;;;5047614;28;20516;-73
2022/08/18 04:29:15;;;;;;;10.27;3.95;;;20.00;99.90;;;;;;5058167;28;20075;-73
2022/08/18 04:31:41;;;;;;;9.90;3.70;;;20.00;99.90;;;;;;5063970;28;20029;-73
2022/08/18 04:34:07;;;;;;;7.57;3.70;;;20.00;99.90;;;;;;5055061;28;20104;-73
2022/08/18 04:36:34;;;;;;;8.15;4.43;;;20.00;99.90;;;;;;5051601;28;20108;-73
2022/08/18 04:39:03;;;;;;;9.15;3.75;;;19.90;99.90;;;;;;5057176;28;20092;-73
2022/08/18 04:41:29;;;;;;;10.85;4.60;;;20.00;99.90;;;;;;5056186;28;20028;-73
2022/08/18 04:43:57;;;;;;;10.10;4.63;;;19.90;99.90;;;;;;5052812;28;20047;-73
2022/08/18 04:46:23;;;;;;;9.50;3.78;;;19.80;99.90;;;;;;5053031;28;20070;-73
2022/08/18 04:48:49;;;;;;;6.78;3.50;;;19.70;99.90;;;;;;5060013;28;20044;-73
2022/08/18 04:51:18;;;;;;;14.57;3.53;;;19.70;99.90;;;;;;5049570;28;20074;-73
2022/08/18 04:53:44;;;;;;;5.50;2.75;;;19.90;99.90;;;;;;5047448;28;20086;-73
2022/08/18 04:56:33;;;;;;;10.18;3.25;;;20.00;99.90;;;;;;5060099;28;20120;-73
2022/08/18 04:59:05;;;;;;;6.43;2.55;;;20.10;99.90;;;;;;5046997;28;20140;-73
2022/08/18 05:01:36;;;;;;;5.57;3.67;;;20.10;99.90;;;;;;5047979;28;20462;-73
2022/08/18 05:04:02;;;;;;;11.18;4.72;;;20.10;99.90;;;;;;5054729;28;20086;-72
2022/08/18 05:06:28;;;;;;;8.63;4.80;;;19.80;99.90;;;;;;5063533;28;20745;-73
2022/08/18 05:08:57;;;;;;;10.73;4.35;;;19.90;99.90;;;;;;5058945;28;20116;-73
2022/08/18 05:11:24;;;;;;;10.05;3.50;;;19.90;99.90;;;;;;5060140;28;20101;-72
2022/08/18 05:13:54;;;;;;;7.25;3.10;;;19.80;99.90;;;;;;5049263;28;20037;-73
2022/08/18 05:16:20;;;;;;;5.88;2.70;;;19.70;99.90;;;;;;5057588;28;20487;-73
2022/08/18 05:18:46;;;;;;;8.10;2.42;;;19.50;99.90;;;;;;5045327;28;20028;-73
2022/08/18 05:21:15;;;;;;;9.35;2.45;;;19.40;99.90;;;;;;5046252;28;20391;-72
2022/08/18 05:23:42;;;;;;;7.20;3.17;;;19.50;99.90;;;;;;5041767;28;20082;-73
2022/08/18 05:26:09;;;;;;;5.80;2.70;;;19.70;99.90;;;;;;5043740;28;20036;-75
2022/08/18 05:28:36;;;;;;;4.97;2.33;;;19.80;99.90;;;;;;5056948;28;20044;-75
2022/08/18 05:31:14;;;;;;;6.97;2.80;;;19.70;99.90;;;;;;5056901;28;20059;-73
2022/08/18 05:33:40;;;;;;;8.00;3.28;;;19.60;99.90;;;;;;5060735;28;20042;-73
2022/08/18 05:36:36;;;;;;;7.13;3.63;;;19.80;99.90;;;;;;5055633;28;20112;-73
2022/08/18 05:39:16;;;;;;;5.95;2.33;;;19.90;99.90;;;;;;5060782;28;20024;-73
2022/08/18 05:41:50;;;;;;;5.82;3.00;;;20.10;99.90;;;;;;5052338;28;20033;-72
2022/08/18 05:44:20;;;;;;;6.03;2.83;;;20.30;99.90;;;;;;5052716;28;20071;-73
2022/08/18 05:46:55;;;;;;;9.60;3.45;;;20.20;99.90;;;;;;5057858;28;20298;-73
2022/08/18 05:49:24;;;;;;;9.20;3.28;;;20.10;99.90;;;;;;5065028;28;20028;-72
2022/08/18 05:52:00;;;;;;;7.22;3.15;;;20.50;99.90;;;;;;5048936;28;20390;-73
2022/08/18 05:57:21;;;;;;;5.50;3.40;;;20.30;99.90;;;;;;5051847;28;20457;-73
2022/08/18 05:59:47;;;;;;;11.25;3.13;;;20.50;99.90;;;;;;5054039;28;20482;-73
2022/08/18 06:02:31;;;;;;;8.93;4.28;;;20.50;99.90;;;;;;5050753;28;20040;-72
2022/08/18 06:05:10;;;;;;;8.20;3.25;;;20.40;99.90;;;;;;5047592;28;20052;-73
2022/08/18 06:07:43;;;;;;;6.03;3.40;;;20.40;99.90;;;;;;5046166;28;20069;-73
2022/08/18 06:10:11;;;;;;;6.70;2.80;;;20.30;99.90;;;;;;5052035;28;20050;-73
2022/08/18 06:12:44;;;;;;;6.80;3.47;;;20.20;99.90;;;;;;5057962;28;20025;-73
2022/08/18 06:15:15;;;;;;;6.88;3.38;;;20.20;99.90;;;;;;5059698;28;20037;-75
2022/08/18 06:18:13;;;;;;;5.78;3.05;;;20.20;99.90;;;;;;5057570;28;20059;-75
2022/08/18 06:21:14;;;;;;;6.57;3.13;;;20.10;99.90;;;;;;5061413;28;20127;-75
2022/08/18 06:23:59;;;;;;;11.85;3.47;;;20.10;99.90;;;;;;5038196;28;20436;-75
2022/08/18 06:26:32;;;;;;;7.70;2.83;;;20.20;99.90;;;;;;5058792;28;20386;-74
2022/08/18 06:29:35;;;;;;;9.17;2.73;;;20.20;99.90;;;;;;5054355;28;20037;-74
2022/08/18 06:32:33;;;;;;;7.03;3.38;;;20.30;99.90;;;;;;5047474;28;20749;-75
2022/08/18 06:35:09;;;;;;;8.70;3.20;;;19.90;99.90;;;;;;5037558;28;20043;-74
2022/08/18 06:38:37;;;;;;;7.97;3.20;;;19.80;99.90;;;;;;5065868;28;20082;-74
2022/08/18 06:40:27;;;;;;;5.72;2.90;;;19.90;99.90;;;;;;5054752;28;20570;-74
2022/08/18 06:42:52;;;;;;;5.28;2.97;;;19.90;99.90;;;;;;5050485;28;20701;-74
2022/08/18 06:45:24;;;;;;;8.55;3.53;;;19.80;99.90;;;;;;5055877;28;20060;-74
2022/08/18 06:47:58;;;;;;;6.40;3.30;;;20.00;99.90;;;;;;5046079;28;20060;-74
2022/08/18 06:50:35;;;;;;;7.53;3.72;;;20.10;99.90;;;;;;5056503;28;20117;-74
2022/08/18 06:53:04;;;;;;;10.52;4.72;;;20.20;99.90;;;;;;5060849;28;20085;-74
2022/08/18 06:55:44;;;;;;;9.32;5.03;;;20.20;99.90;;;;;;5053023;28;20024;-75
2022/08/18 06:58:16;;;;;;;10.02;5.28;;;20.30;99.90;;;;;;5062032;28;20036;-74
2022/08/18 07:00:54;;;;;;;9.95;4.90;;;20.20;99.90;;;;;;5050619;28;20127;-74
2022/08/18 07:03:44;;;;;;;8.43;4.70;;;20.20;99.90;;;;;;5061111;28;20367;-74
2022/08/18 07:06:21;;;;;;;8.68;3.80;;;20.20;99.90;;;;;;5046115;28;20064;-74
2022/08/18 07:08:49;;;;;;;10.13;3.45;;;19.90;99.90;;;;;;5045678;28;21448;-75
2022/08/18 07:11:31;;;;;;;10.95;3.63;;;19.90;99.90;;;;;;5061490;28;20068;-75
2022/08/18 07:14:12;;;;;;;9.30;3.60;;;20.00;99.90;;;;;;5063952;28;20111;-74
2022/08/18 07:16:38;;;;;;;7.95;4.15;;;20.20;99.90;;;;;;5066209;28;20028;-74
2022/08/18 07:19:15;;;;;;;7.07;4.03;;;20.20;99.90;;;;;;5065997;28;20544;-74
2022/08/18 07:21:42;;;;;;;16.00;2.72;;;20.30;99.90;;;;;;5064940;28;20032;-74
2022/08/18 07:24:30;;;;;;;4.03;2.35;;;20.50;99.90;;;;;;5066650;28;20036;-75
2022/08/18 07:27:01;;;;;;;8.35;3.03;;;20.60;99.90;;;;;;5065569;28;20094;-75
2022/08/18 07:29:33;;;;;;;10.43;4.47;;;20.80;99.90;;;;;;5060274;28;20028;-75
2022/08/18 07:32:14;;;;;;;9.60;4.35;;;20.60;99.90;;;;;;5051862;28;20088;-76
2022/08/18 07:34:45;;;;;;;9.00;4.53;;;20.60;99.90;;;;;;5059980;28;20037;-76
2022/08/18 07:37:41;;;;;;;9.23;4.47;;;20.60;99.90;;;;;;5061093;28;20033;-76
2022/08/18 07:40:13;;;;;;;9.52;4.57;;;20.50;99.90;;;;;;5059097;28;20115;-75
2022/08/18 07:42:53;;;;;;;10.75;6.47;;;20.60;99.90;;;;;;5046683;28;20090;-75
2022/08/18 07:45:34;;;;;;;10.77;6.07;;;20.50;99.90;;;;;;5061057;28;20502;-76
2022/08/18 07:48:03;;;;;;;10.73;5.90;;;20.40;99.90;;;;;;5067748;28;20033;-75
2022/08/18 07:50:38;;;;;;;11.77;5.47;;;20.40;99.90;;;;;;5070110;28;20090;-76
2022/08/18 07:53:43;;;;;;;11.23;5.55;;;20.20;99.90;;;;;;5051625;28;20029;-76
2022/08/18 07:56:27;;;;;;;13.40;6.28;;;20.20;99.90;;;;;;5036395;28;20048;-76
2022/08/18 07:58:59;;;;;;;11.85;5.70;;;20.30;99.90;;;;;;5068478;28;20032;-76
2022/08/18 08:01:38;;;;;;;12.27;6.18;;;20.30;99.90;;;;;;5064140;28;20025;-75
2022/08/18 08:04:14;;;;;;;8.57;4.57;;;20.20;99.90;;;;;;5060041;28;20989;-76
2022/08/18 08:06:48;;;;;;;14.02;5.78;;;20.10;99.90;;;;;;5071279;28;20044;-76
2022/08/18 08:09:33;;;;;;;9.50;4.68;;;20.20;99.90;;;;;;5079693;28;20048;-74
2022/08/18 08:12:02;;;;;;;;;;;20.10;99.90;;;;;;5084161;28;20025;-75
2022/08/18 08:14:28;;;;;;;8.88;4.55;;;20.10;99.90;;;;;;5085038;28;19992;-75
2022/08/18 08:17:24;;;;;;;10.80;5.72;;;19.90;99.90;;;;;;5079632;28;20486;-76
2022/08/18 08:20:17;;;;;;;8.75;4.72;;;19.70;99.90;;;;;;5073476;28;20036;-75
2022/08/18 08:23:13;;;;;;;8.50;5.05;;;19.60;99.90;;;;;;5071808;28;20034;-75
2022/08/18 08:25:54;;;;;;;8.60;4.50;;;19.60;99.90;;;;;;5059109;28;20028;-76
2022/08/18 08:28:28;;;;;;;10.60;4.47;;;19.60;99.90;;;;;;5062152;28;20048;-75
2022/08/18 08:31:32;;;;;;;8.23;3.88;;;19.60;99.90;;;;;;5059586;28;20476;-75
2022/08/18 08:34:10;;;;;;;10.35;3.97;;;19.70;99.90;;;;;;5048079;28;20032;-75
2022/08/18 08:36:40;;;;;;;11.25;4.20;;;19.80;99.90;;;;;;5065504;28;20082;-74
2022/08/18 08:39:15;;;;;;;6.50;3.28;;;19.70;99.90;;;;;;5067311;28;20027;-74
2022/08/18 08:41:56;;;;;;;8.02;3.22;;;19.60;99.90;;;;;;5051233;28;20033;-75
2022/08/18 08:44:27;;;;;;;5.90;2.95;;;19.60;99.90;;;;;;5051438;28;20039;-76
2022/08/18 08:47:06;;;;;;;5.60;2.63;;;19.80;99.90;;;;;;5047219;28;20045;-77
2022/08/18 08:49:53;;;;;;;5.95;2.80;;;19.80;99.90;;;;;;5047681;28;20037;-76
2022/08/18 08:52:25;;;;;;;8.05;4.82;;;19.70;99.90;;;;;;5045978;28;20025;-75
2022/08/18 08:55:16;;;;;;;7.55;5.07;;;19.60;99.90;;;;;;5060513;28;20044;-74
2022/08/18 08:57:54;;;;;;;9.02;4.57;;;19.50;99.90;;;;;;5063823;28;20028;-76
2022/08/18 09:00:20;;;;;;;15.68;6.47;;;19.60;99.90;;;;;;5063181;28;20518;-76
2022/08/18 09:03:28;;;;;;;6.82;3.47;;;19.60;99.90;;;;;;5064328;28;20031;-76
2022/08/18 09:06:29;;;;;;;5.78;2.95;;;19.90;99.90;;;;;;5044367;28;20085;-76
2022/08/18 09:09:21;;;;;;;7.47;3.55;;;20.10;99.90;;;;;;5011444;28;20574;-76
2022/08/18 09:11:52;;;;;;;7.88;4.32;;;20.40;99.90;;;;;;5041043;28;20076;-76
2022/08/18 09:14:24;;;;;;;7.93;3.55;;;20.60;99.90;;;;;;5060456;28;20082;-75
2022/08/18 09:16:58;;;;;;;10.10;3.95;;;20.70;99.90;;;;;;5064660;28;20082;-76
2022/08/18 09:19:41;;;;;;;4.28;2.60;;;20.70;99.90;;;;;;5065172;28;20115;-75
2022/08/18 09:22:28;;;;;;;9.20;3.42;;;20.50;99.90;;;;;;5063446;28;20036;-76
2022/08/18 09:24:54;;;;;;;9.48;4.90;;;20.50;99.90;;;;;;5064172;28;20032;-76
2022/08/18 09:27:43;;;;;;;8.95;4.70;;;20.30;99.90;;;;;;5050590;28;20045;-76
2022/08/18 09:30:38;;;;;;;8.82;5.35;;;20.10;99.90;;;;;;5057995;28;20039;-76
2022/08/18 09:33:24;;;;;;;9.82;5.63;;;20.10;99.90;;;;;;5062732;28;20033;-76
2022/08/18 09:35:56;;;;;;;12.98;6.43;;;20.10;99.90;;;;;;5031734;28;20123;-77
2022/08/18 09:41:33;;;;;;;12.32;5.53;;;20.10;99.90;;;;;;5056931;28;20047;-76
2022/08/18 09:44:09;;;;;;;8.98;5.45;;;20.10;99.90;;;;;;5051794;28;20549;-77
2022/08/18 09:46:43;;;;;;;9.93;5.38;;;20.10;99.90;;;;;;5056763;28;20041;-76
2022/08/18 09:49:24;;;;;;;7.90;4.47;;;20.20;99.90;;;;;;5063079;28;20037;-76
2022/08/18 09:51:51;;;;;;;10.50;4.28;;;20.40;99.90;;;;;;5062875;28;20612;-76
2022/08/18 09:54:23;;;;;;;7.82;4.50;;;20.50;99.90;;;;;;5060329;28;20028;-76
2022/08/18 09:56:48;;;;;;;10.15;4.15;;;20.70;99.90;;;;;;5054537;28;20033;-76
2022/08/18 09:59:32;;;;;;;7.68;4.13;;;20.90;99.90;;;;;;5051465;28;20054;-76
2022/08/18 10:01:59;;;;;;;7.30;3.83;;;21.00;99.90;;;;;;5065334;28;20043;-76
2022/08/18 10:04:47;;;;;;;7.07;3.70;;;21.20;99.90;;;;;;5065458;28;20063;-75
2022/08/18 10:07:38;;;;;;;6.97;3.17;;;21.40;99.90;;;;;;5062547;28;20474;-75
2022/08/18 10:10:21;;;;;;;6.57;4.00;;;21.30;99.90;;;;;;5062795;28;20079;-75
2022/08/18 10:13:18;;;;;;;6.33;3.30;;;21.50;99.90;;;;;;5064798;28;20028;-77
2022/08/18 10:15:59;;;;;;;7.45;2.58;;;21.50;99.90;;;;;;5037449;28;20567;-76
2022/08/18 10:18:50;;;;;;;9.40;3.45;;;21.20;99.90;;;;;;5060299;28;20176;-75
2022/08/18 10:21:27;;;;;;;6.20;3.20;;;21.10;99.90;;;;;;5066102;28;20028;-75
2022/08/18 10:24:04;;;;;;;6.05;3.13;;;21.00;99.90;;;;;;5065907;28;20059;-76
2022/08/18 10:26:30;;;;;;;10.27;3.67;;;20.90;99.90;;;;;;5047303;28;20675;-75
2022/08/18 10:29:02;;;;;;;8.88;4.00;;;20.80;99.90;;;;;;5045701;28;20041;-76
2022/08/18 10:31:30;;;;;;;8.23;3.53;;;20.70;99.90;;;;;;5039823;28;20116;-75
2022/08/18 10:34:08;;;;;;;5.80;3.38;;;20.50;99.90;;;;;;5046831;28;20056;-75
2022/08/18 10:36:48;;;;;;;7.28;2.90;;;20.30;99.90;;;;;;5053985;28;20042;-74
2022/08/18 10:39:29;;;;;;;9.27;3.05;;;20.30;99.90;;;;;;5063851;28;20044;-76
2022/08/18 10:42:05;;;;;;;6.15;2.75;;;20.30;99.90;;;;;;5047689;28;20064;-76
2022/08/18 10:44:39;;;;;;;8.65;3.40;;;20.30;99.90;;;;;;5063883;28;20056;-76
2022/08/18 10:47:04;;;;;;;6.32;2.63;;;20.40;99.90;;;;;;5066361;28;20052;-76
2022/08/18 10:49:32;;;;;;;8.60;3.00;;;20.40;99.90;;;;;;5066440;28;20155;-76
2022/08/18 10:52:16;;;;;;;5.45;2.30;;;20.20;99.90;;;;;;5065376;28;20498;-76
2022/08/18 10:54:41;;;;;;;;;;;20.10;99.90;;;;;;5065350;28;20504;-77
2022/08/18 10:57:16;;;;;;;12.77;3.35;;;19.90;99.90;;;;;;5065377;28;19916;-76
2022/08/18 11:00:09;;;;;;;8.13;2.90;;;20.00;99.90;;;;;;5065996;28;20041;-76
2022/08/18 11:02:56;;;;;;;9.48;3.25;;;19.70;99.90;;;;;;5066397;28;20052;-75
2022/08/18 11:05:24;;;;;;;9.57;3.47;;;19.50;99.90;;;;;;5065609;28;20111;-75
2022/08/18 11:07:58;;;;;;;9.70;2.72;;;19.40;99.90;;;;;;5061494;28;20093;-77
2022/08/18 11:10:37;;;;;;;9.70;3.20;;;19.30;99.90;;;;;;5053343;28;20272;-76
2022/08/18 11:13:36;;;;;;;10.10;3.63;;;19.30;99.90;;;;;;5054297;28;20064;-76
2022/08/18 11:16:29;;;;;;;9.45;3.53;;;19.30;99.90;;;;;;5058469;28;20090;-76
2022/08/18 11:19:08;;;;;;;7.43;2.78;;;19.20;99.90;;;;;;5052757;28;20029;-76
2022/08/18 11:21:36;;;;;;;7.47;2.92;;;19.40;99.90;;;;;;5055867;28;20074;-75
2022/08/18 11:24:04;;;;;;;5.53;2.60;;;19.50;99.90;;;;;;5051827;28;20086;-75
2022/08/18 11:26:33;;;;;;;9.90;4.20;;;19.40;99.90;;;;;;5069529;28;20043;-75
2022/08/18 11:29:00;;;;;;;9.90;3.20;;;19.40;99.90;;;;;;5068077;28;20059;-76
2022/08/18 11:31:26;;;;;;;6.45;3.53;;;19.40;99.90;;;;;;5048423;28;20092;-76
2022/08/18 11:33:52;;;;;;;7.88;3.20;;;19.30;99.90;;;;;;5050450;28;20033;-78
2022/08/18 11:36:29;;;;;;;7.68;3.00;;;19.20;99.90;;;;;;5064648;28;20032;-76
2022/08/18 11:38:55;;;;;;;6.00;2.08;;;19.20;99.90;;;;;;5055345;28;20033;-77
2022/08/18 11:41:26;;;;;;;5.57;2.22;;;19.30;99.90;;;;;;5050967;28;20488;-77
2022/08/18 11:43:58;;;;;;;5.82;1.63;;;19.30;99.90;;;;;;5060013;28;20115;-77
2022/08/18 11:46:32;;;;;;;6.80;2.33;;;19.20;99.90;;;;;;5054897;28;20083;-76
2022/08/18 11:49:00;;;;;;;4.15;1.45;;;19.20;99.90;;;;;;5050311;28;20678;-76
2022/08/18 11:51:32;;;;;;;6.68;2.15;;;19.30;99.90;;;;;;5050953;28;20091;-77
2022/08/18 11:54:18;;;;;;;6.30;1.55;;;19.40;99.90;;;;;;5054574;28;20041;-77
2022/08/18 11:56:44;;;;;;;5.32;1.73;;;19.50;99.90;;;;;;5052332;28;20031;-77
2022/08/18 11:59:24;;;;;;;5.43;1.85;;;19.50;99.90;;;;;;5065884;28;20190;-76
2022/08/18 12:01:56;;;;;;;6.07;1.60;;;19.60;99.90;;;;;;5048234;28;20044;-77
2022/08/18 12:04:38;;;;;;;10.63;2.65;;;19.60;99.90;;;;;;5048241;28;20474;-76
2022/08/18 12:07:25;;;;;;;4.47;2.50;;;19.60;99.90;;;;;;5044484;28;20041;-77
2022/08/18 12:10:20;;;;;;;7.50;2.35;;;19.50;99.90;;;;;;5055736;28;20053;-77
2022/08/18 12:12:48;;;;;;;;;;;19.50;99.90;;;;;;5037458;28;20443;-76
2022/08/18 12:15:13;;;;;;;5.05;2.10;;;19.50;99.90;;;;;;5052414;28;19956;-76
2022/08/18 12:17:41;;;;;;;8.77;3.20;;;19.40;99.90;;;;;;5065054;28;20066;-76
2022/08/18 12:20:08;;;;;;;7.65;2.05;;;19.40;99.90;;;;;;5047321;28;20090;-76
2022/08/18 12:22:36;;;;;;;7.40;2.45;;;19.40;99.90;;;;;;5047266;28;20025;-76
2022/08/18 12:25:07;;;;;;;4.38;1.63;;;19.40;99.90;;;;;;5055875;28;20048;-75
2022/08/18 12:27:33;;;;;;;4.07;0.90;;;19.30;99.90;;;;;;5056428;28;20032;-75
2022/08/18 12:30:00;;;;;;;3.85;1.10;;;19.30;99.90;;;;;;5048939;28;20036;-75
2022/08/18 12:32:28;;;;;;;1.23;0.50;;;19.30;99.90;;;;;;5056888;28;20064;-78
2022/08/18 12:34:54;;;;;;;3.33;0.82;;;19.40;99.90;;;;;;5062613;28;20035;-74
2022/08/18 12:37:23;;;;;;;1.23;0.50;;;19.50;99.90;;;;;;5058958;28;20111;-75
2022/08/18 12:39:50;;;;;;;8.18;0.73;;;19.40;99.90;;;;;;5050550;28;20105;-77
2022/08/18 12:42:16;;;;;;;3.97;1.23;;;19.40;99.90;;;;;;5048522;28;20655;-77
2022/08/18 12:44:42;;;;;;;2.58;0.68;;;19.60;99.90;;;;;;5050849;28;20652;-75
2022/08/18 12:47:13;;;;;;;5.95;0.77;;;19.60;99.90;;;;;;5047243;28;20124;-75
2022/08/18 12:49:40;;;;;;;2.10;0.47;;;19.60;99.90;;;;;;5046401;28;20124;-76
2022/08/18 12:52:06;;;;;;;2.53;0.57;;;19.70;99.90;;;;;;5062218;28;20111;-76
2022/08/18 12:54:34;;;;;;;1.65;0.70;;;19.60;99.90;;;;;;5054671;28;20474;-76
2022/08/18 12:57:00;;;;;;;2.25;0.70;;;19.70;99.90;;;;;;5063497;28;20111;-75
2022/08/18 12:59:26;;;;;;;1.80;0.68;;;19.70;99.90;;;;;;5062023;28;20040;-75
2022/08/18 13:01:52;;;;;;;3.10;0.70;;;19.70;99.90;;;;;;5063440;28;20107;-75
2022/08/18 13:04:18;;;;;;;2.50;0.52;;;19.80;99.90;;;;;;5055956;28;20116;-75
2022/08/18 13:06:53;;;;;;;2.47;0.80;;;19.90;99.90;;;;;;5051232;28;20899;-76
2022/08/18 13:09:19;;;;;;;1.83;0.75;;;19.90;99.90;;;;;;5050752;28;20053;-76
2022/08/18 13:11:45;;;;;;;1.33;0.57;;;19.80;99.90;;;;;;5050429;28;20043;-75
2022/08/18 13:14:11;;;;;;;2.78;0.82;;;20.00;99.90;;;;;;5045673;28;20033;-76
2022/08/18 13:16:39;;;;;;;2.58;0.77;;;20.20;99.90;;;;;;5043637;28;20032;-76
2022/08/18 13:19:06;;;;;;;2.75;0.80;;;20.40;99.90;;;;;;5043627;28;20041;-75
2022/08/18 13:21:32;;;;;;;2.83;0.60;;;20.50;99.90;;;;;;5044144;28;20041;-75
2022/08/18 13:23:59;;;;;;;4.15;1.15;;;20.60;99.90;;;;;;5048312;28;20435;-75
2022/08/18 13:26:28;;;;;;;1.65;0.75;;;20.80;99.90;;;;;;5063244;28;20031;-75
2022/08/18 13:28:54;;;;;;;1.77;0.55;;;20.80;99.90;;;;;;5063253;28;20048;-75